SDG052 LIPZ-LICC
Flight info
| Callsign | SDG052 |
|---|---|
| Flight time | 1h 27m |
| Altitude | 31000 |
| Route | DCT AKADO DCT GAVRA DCT RITEB DCT NAPOX DCT TAGEL DCT VAKOR DCT PELEN DCT COBBA |
| Aircraft | B722/M-SDFGHRWY/C |
Departure
| Time | 2026-05-05 20:08 |
|---|---|
| Airport | Venice Marco Polo Airport (LIPZ) |
Arrival
| Time | 2026-05-05 21:35 |
|---|---|
| Airport | Catania-Fontanarossa Airport (LICC) |
| Time | Latitude | Longitude | Altitude | Speed | Heading |
|---|---|---|---|---|---|
| 2026-05-05 19:35 | 45.50549 | 12.34208 | 5 ft | 0 kts | 267° |
| 2026-05-05 19:36 | 45.50662 | 12.34148 | 8 ft | 0 kts | 267° |
| 2026-05-05 19:54 | 45.50663 | 12.34167 | 8 ft | 1 kts | 267° |
| 2026-05-05 19:54 | 45.50663 | 12.34182 | 8 ft | 2 kts | 256° |
| 2026-05-05 19:54 | 45.50670 | 12.34201 | 8 ft | 2 kts | 228° |
| 2026-05-05 19:54 | 45.50683 | 12.34215 | 8 ft | 2 kts | 202° |
| 2026-05-05 19:55 | 45.50698 | 12.34220 | 8 ft | 2 kts | 178° |
| 2026-05-05 19:55 | 45.50713 | 12.34215 | 8 ft | 2 kts | 152° |
| 2026-05-05 19:55 | 45.50723 | 12.34205 | 8 ft | 0 kts | 133° |
| 2026-05-05 19:55 | 45.50728 | 12.34197 | 8 ft | 0 kts | 130° |
| 2026-05-05 19:57 | 45.50727 | 12.34197 | 8 ft | 0 kts | 130° |
| 2026-05-05 19:58 | 45.50718 | 12.34213 | 8 ft | 6 kts | 130° |
| 2026-05-05 19:58 | 45.50686 | 12.34267 | 8 ft | 8 kts | 130° |
| 2026-05-05 19:58 | 45.50630 | 12.34331 | 5 ft | 12 kts | 159° |
| 2026-05-05 19:58 | 45.50543 | 12.34347 | 7 ft | 11 kts | 177° |
| 2026-05-05 19:59 | 45.50464 | 12.34350 | 9 ft | 11 kts | 179° |
| 2026-05-05 19:59 | 45.50380 | 12.34351 | 9 ft | 12 kts | 179° |
| 2026-05-05 19:59 | 45.50299 | 12.34355 | 10 ft | 10 kts | 176° |
| 2026-05-05 19:59 | 45.50219 | 12.34360 | 10 ft | 11 kts | 179° |
| 2026-05-05 20:00 | 45.50137 | 12.34330 | 10 ft | 12 kts | 210° |
| 2026-05-05 20:00 | 45.50061 | 12.34253 | 10 ft | 13 kts | 218° |
| 2026-05-05 20:00 | 45.49983 | 12.34161 | 11 ft | 14 kts | 220° |
| 2026-05-05 20:00 | 45.49902 | 12.34060 | 11 ft | 15 kts | 222° |
| 2026-05-05 20:01 | 45.49819 | 12.33952 | 12 ft | 16 kts | 222° |
| 2026-05-05 20:01 | 45.49730 | 12.33836 | 12 ft | 17 kts | 221° |
| 2026-05-05 20:01 | 45.49633 | 12.33712 | 12 ft | 18 kts | 221° |
| 2026-05-05 20:01 | 45.49548 | 12.33608 | 12 ft | 10 kts | 205° |
| 2026-05-05 20:02 | 45.49516 | 12.33614 | 12 ft | 0 kts | 135° |
| 2026-05-05 20:03 | 45.49513 | 12.33618 | 12 ft | 2 kts | 136° |
| 2026-05-05 20:03 | 45.49501 | 12.33634 | 12 ft | 3 kts | 136° |
| 2026-05-05 20:03 | 45.49497 | 12.33639 | 12 ft | 0 kts | 136° |
| 2026-05-05 20:05 | 45.49494 | 12.33643 | 12 ft | 2 kts | 136° |
| 2026-05-05 20:06 | 45.49464 | 12.33685 | 12 ft | 7 kts | 132° |
| 2026-05-05 20:06 | 45.49438 | 12.33765 | 12 ft | 9 kts | 94° |
| 2026-05-05 20:06 | 45.49452 | 12.33818 | 12 ft | 0 kts | 43° |
| 2026-05-05 20:07 | 45.49532 | 12.33924 | 12 ft | 50 kts | 41° |
| 2026-05-05 20:08 | 45.50000 | 12.34523 | 12 ft | 124 kts | 42° |
| 2026-05-05 20:08 | 45.50712 | 12.35479 | 354 ft | 143 kts | 43° |
| 2026-05-05 20:08 | 45.51404 | 12.36488 | 908 ft | 140 kts | 45° |
| 2026-05-05 20:08 | 45.52050 | 12.37541 | 1508 ft | 130 kts | 49° |
| 2026-05-05 20:09 | 45.52607 | 12.38624 | 1806 ft | 143 kts | 55° |
| 2026-05-05 20:09 | 45.53106 | 12.39802 | 2342 ft | 129 kts | 68° |
| 2026-05-05 20:09 | 45.53239 | 12.41191 | 2445 ft | 149 kts | 95° |
| 2026-05-05 20:09 | 45.53091 | 12.42600 | 3014 ft | 131 kts | 101° |
| 2026-05-05 20:10 | 45.52889 | 12.43963 | 3097 ft | 150 kts | 101° |
| 2026-05-05 20:10 | 45.52674 | 12.45593 | 3266 ft | 179 kts | 100° |
| 2026-05-05 20:10 | 45.52440 | 12.47450 | 3933 ft | 187 kts | 102° |
| 2026-05-05 20:10 | 45.52185 | 12.49244 | 4670 ft | 189 kts | 103° |
| 2026-05-05 20:11 | 45.51883 | 12.51286 | 4964 ft | 215 kts | 103° |
| 2026-05-05 20:11 | 45.51613 | 12.53325 | 5888 ft | 197 kts | 101° |
| 2026-05-05 20:11 | 45.51397 | 12.55278 | 6376 ft | 204 kts | 100° |
| 2026-05-05 20:11 | 45.51202 | 12.57389 | 6836 ft | 212 kts | 98° |
| 2026-05-05 20:12 | 45.51082 | 12.59404 | 7733 ft | 195 kts | 93° |
| 2026-05-05 20:12 | 45.50915 | 12.61422 | 7922 ft | 213 kts | 113° |
| 2026-05-05 20:12 | 45.49964 | 12.63202 | 8052 ft | 224 kts | 156° |
| 2026-05-05 20:12 | 45.48506 | 12.63311 | 8649 ft | 208 kts | 208° |
| 2026-05-05 20:13 | 45.47507 | 12.61984 | 9475 ft | 185 kts | 234° |
| 2026-05-05 20:13 | 45.46654 | 12.60668 | 10062 ft | 178 kts | 220° |
| 2026-05-05 20:13 | 45.45553 | 12.59666 | 10301 ft | 188 kts | 210° |
| 2026-05-05 20:13 | 45.44330 | 12.58938 | 10826 ft | 183 kts | 200° |
| 2026-05-05 20:14 | 45.43042 | 12.58539 | 11000 ft | 200 kts | 189° |
| 2026-05-05 20:14 | 45.41512 | 12.58417 | 11053 ft | 232 kts | 186° |
| 2026-05-05 20:14 | 45.39813 | 12.58062 | 11235 ft | 251 kts | 203° |
| 2026-05-05 20:14 | 45.38153 | 12.57005 | 11727 ft | 262 kts | 210° |
| 2026-05-05 20:15 | 45.36505 | 12.55765 | 12357 ft | 270 kts | 211° |
| 2026-05-05 20:15 | 45.34829 | 12.54459 | 13025 ft | 276 kts | 212° |
| 2026-05-05 20:15 | 45.33091 | 12.53088 | 13771 ft | 283 kts | 212° |
| 2026-05-05 20:15 | 45.31352 | 12.51707 | 14560 ft | 287 kts | 212° |
| 2026-05-05 20:16 | 45.29601 | 12.50312 | 15381 ft | 289 kts | 212° |
| 2026-05-05 20:16 | 45.27816 | 12.48888 | 16194 ft | 290 kts | 212° |
| 2026-05-05 20:16 | 45.26058 | 12.47485 | 16945 ft | 292 kts | 212° |
| 2026-05-05 20:16 | 45.24228 | 12.46019 | 17397 ft | 305 kts | 212° |
| 2026-05-05 20:17 | 45.22321 | 12.44484 | 17858 ft | 316 kts | 212° |
| 2026-05-05 20:17 | 45.20389 | 12.42919 | 18368 ft | 325 kts | 212° |
| 2026-05-05 20:17 | 45.18375 | 12.41280 | 18928 ft | 332 kts | 212° |
| 2026-05-05 20:17 | 45.16332 | 12.39619 | 19551 ft | 336 kts | 212° |
| 2026-05-05 20:18 | 45.14275 | 12.37952 | 20204 ft | 339 kts | 212° |
| 2026-05-05 20:18 | 45.12212 | 12.36283 | 20840 ft | 341 kts | 212° |
| 2026-05-05 20:18 | 45.10133 | 12.34605 | 21450 ft | 343 kts | 212° |
| 2026-05-05 20:18 | 45.08007 | 12.32897 | 22008 ft | 347 kts | 212° |
| 2026-05-05 20:19 | 45.05877 | 12.31186 | 22335 ft | 357 kts | 212° |
| 2026-05-05 20:19 | 45.03645 | 12.29390 | 22595 ft | 368 kts | 212° |
| 2026-05-05 20:19 | 45.01364 | 12.27554 | 22986 ft | 375 kts | 212° |
| 2026-05-05 20:19 | 44.99054 | 12.25694 | 23432 ft | 379 kts | 212° |
| 2026-05-05 20:20 | 44.96744 | 12.23842 | 23937 ft | 382 kts | 211° |
| 2026-05-05 20:20 | 44.94186 | 12.22639 | 24403 ft | 392 kts | 190° |
| 2026-05-05 20:20 | 44.91404 | 12.22878 | 24841 ft | 406 kts | 171° |
| 2026-05-05 20:20 | 44.88731 | 12.24373 | 25246 ft | 416 kts | 159° |
| 2026-05-05 20:21 | 44.86116 | 12.26188 | 25614 ft | 418 kts | 162° |
| 2026-05-05 20:21 | 44.83291 | 12.27141 | 25951 ft | 409 kts | 181° |
| 2026-05-05 20:21 | 44.80413 | 12.26900 | 26340 ft | 403 kts | 194° |
| 2026-05-05 20:21 | 44.77655 | 12.25993 | 26749 ft | 402 kts | 200° |
| 2026-05-05 20:22 | 44.74987 | 12.24848 | 27150 ft | 403 kts | 202° |
| 2026-05-05 20:22 | 44.72295 | 12.23631 | 27552 ft | 405 kts | 202° |
| 2026-05-05 20:22 | 44.69584 | 12.22417 | 27941 ft | 407 kts | 202° |
| 2026-05-05 20:22 | 44.66884 | 12.21233 | 28303 ft | 409 kts | 202° |
| 2026-05-05 20:23 | 44.64104 | 12.20030 | 28665 ft | 411 kts | 202° |
| 2026-05-05 20:23 | 44.61364 | 12.18852 | 29000 ft | 413 kts | 202° |
| 2026-05-05 20:23 | 44.58589 | 12.17661 | 29365 ft | 415 kts | 202° |
| 2026-05-05 20:23 | 44.55824 | 12.16474 | 29708 ft | 416 kts | 202° |
| 2026-05-05 20:24 | 44.53071 | 12.15297 | 30014 ft | 418 kts | 202° |
| 2026-05-05 20:24 | 44.50246 | 12.14089 | 30320 ft | 420 kts | 203° |
| 2026-05-05 20:24 | 44.47467 | 12.12899 | 30634 ft | 421 kts | 203° |
| 2026-05-05 20:24 | 44.44649 | 12.11691 | 30878 ft | 422 kts | 203° |
| 2026-05-05 20:25 | 44.41780 | 12.10462 | 30968 ft | 425 kts | 203° |
| 2026-05-05 20:25 | 44.36058 | 12.07987 | 31001 ft | 433 kts | 203° |
| 2026-05-05 20:26 | 44.30269 | 12.05488 | 31008 ft | 440 kts | 203° |
| 2026-05-05 20:26 | 44.24334 | 12.02928 | 31005 ft | 446 kts | 203° |
| 2026-05-05 20:27 | 44.18327 | 12.00340 | 31004 ft | 452 kts | 203° |
| 2026-05-05 20:27 | 44.12258 | 11.97730 | 31004 ft | 458 kts | 203° |
| 2026-05-05 20:28 | 44.06074 | 11.95074 | 31004 ft | 463 kts | 203° |
| 2026-05-05 20:28 | 43.99864 | 11.92410 | 31003 ft | 467 kts | 203° |
| 2026-05-05 20:29 | 43.93606 | 11.89732 | 31003 ft | 471 kts | 203° |
| 2026-05-05 20:29 | 43.87358 | 11.87065 | 31004 ft | 474 kts | 203° |
| 2026-05-05 20:30 | 43.81082 | 11.84394 | 31004 ft | 476 kts | 203° |
| 2026-05-05 20:30 | 43.77815 | 11.83408 | 31001 ft | 487 kts | 192° |
| 2026-05-05 20:30 | 43.74340 | 11.83526 | 31006 ft | 500 kts | 180° |
| 2026-05-05 20:31 | 43.67472 | 11.85616 | 31015 ft | 509 kts | 172° |
| 2026-05-05 20:31 | 43.60492 | 11.88010 | 31016 ft | 507 kts | 174° |
| 2026-05-05 20:32 | 43.53582 | 11.90182 | 31016 ft | 503 kts | 174° |
| 2026-05-05 20:32 | 43.46670 | 11.92341 | 31019 ft | 499 kts | 174° |
| 2026-05-05 20:33 | 43.39847 | 11.94480 | 31037 ft | 496 kts | 174° |
| 2026-05-05 20:33 | 43.33121 | 11.96585 | 31052 ft | 493 kts | 174° |
| 2026-05-05 20:34 | 43.26417 | 11.98663 | 31055 ft | 490 kts | 174° |
| 2026-05-05 20:34 | 43.19767 | 12.00726 | 31054 ft | 488 kts | 174° |
| 2026-05-05 20:35 | 43.13074 | 12.02787 | 31055 ft | 487 kts | 174° |
| 2026-05-05 20:35 | 43.06432 | 12.04830 | 31055 ft | 486 kts | 174° |
| 2026-05-05 20:36 | 42.99785 | 12.06879 | 31056 ft | 485 kts | 174° |
| 2026-05-05 20:36 | 42.93114 | 12.08935 | 31055 ft | 484 kts | 174° |
| 2026-05-05 20:37 | 42.86436 | 12.10988 | 31056 ft | 483 kts | 174° |
| 2026-05-05 20:37 | 42.79813 | 12.13010 | 31056 ft | 483 kts | 174° |
| 2026-05-05 20:38 | 42.73248 | 12.15014 | 31056 ft | 482 kts | 174° |
| 2026-05-05 20:38 | 42.66658 | 12.17331 | 31056 ft | 486 kts | 169° |
| 2026-05-05 20:39 | 42.60201 | 12.20253 | 31056 ft | 487 kts | 167° |
| 2026-05-05 20:39 | 42.53700 | 12.23234 | 31057 ft | 487 kts | 168° |
| 2026-05-05 20:40 | 42.47220 | 12.26159 | 31070 ft | 486 kts | 168° |
| 2026-05-05 20:40 | 42.40761 | 12.29065 | 31082 ft | 486 kts | 168° |
| 2026-05-05 20:41 | 42.34267 | 12.31981 | 31085 ft | 486 kts | 168° |
| 2026-05-05 20:41 | 42.27800 | 12.34880 | 31083 ft | 486 kts | 168° |
| 2026-05-05 20:42 | 42.21329 | 12.37773 | 31083 ft | 486 kts | 168° |
| 2026-05-05 20:42 | 42.14845 | 12.40666 | 31083 ft | 486 kts | 168° |
| 2026-05-05 20:43 | 42.08349 | 12.43559 | 31083 ft | 486 kts | 168° |
| 2026-05-05 20:43 | 42.02110 | 12.46331 | 31083 ft | 486 kts | 168° |
| 2026-05-05 20:44 | 41.95671 | 12.49185 | 31083 ft | 486 kts | 168° |
| 2026-05-05 20:44 | 41.89139 | 12.52073 | 31081 ft | 486 kts | 168° |
| 2026-05-05 20:45 | 41.79462 | 12.56815 | 31069 ft | 490 kts | 165° |
| 2026-05-05 20:45 | 41.72948 | 12.60119 | 31068 ft | 490 kts | 165° |
| 2026-05-05 20:46 | 41.66445 | 12.63388 | 31073 ft | 490 kts | 165° |
| 2026-05-05 20:46 | 41.59950 | 12.66641 | 31075 ft | 490 kts | 166° |
| 2026-05-05 20:47 | 41.53469 | 12.69883 | 31072 ft | 490 kts | 166° |
| 2026-05-05 20:47 | 41.46962 | 12.73133 | 31062 ft | 489 kts | 166° |
| 2026-05-05 20:48 | 41.40494 | 12.76362 | 31058 ft | 489 kts | 166° |
| 2026-05-05 20:48 | 41.33949 | 12.79614 | 31063 ft | 489 kts | 166° |
| 2026-05-05 20:49 | 41.30751 | 12.81205 | 31526 ft | 476 kts | 166° |
| 2026-05-05 20:49 | 41.27627 | 12.82778 | 32181 ft | 460 kts | 166° |
| 2026-05-05 20:49 | 41.24638 | 12.84291 | 32466 ft | 447 kts | 166° |
| 2026-05-05 20:49 | 41.21692 | 12.85776 | 32399 ft | 440 kts | 166° |
| 2026-05-05 20:50 | 41.18771 | 12.87237 | 32078 ft | 437 kts | 166° |
| 2026-05-05 20:50 | 41.15866 | 12.88675 | 31563 ft | 439 kts | 166° |
| 2026-05-05 20:50 | 41.12939 | 12.90113 | 31028 ft | 439 kts | 166° |
| 2026-05-05 20:50 | 41.10041 | 12.91539 | 30577 ft | 437 kts | 166° |
| 2026-05-05 20:51 | 41.07132 | 12.92969 | 30172 ft | 434 kts | 166° |
| 2026-05-05 20:51 | 41.04282 | 12.94372 | 29809 ft | 431 kts | 166° |
| 2026-05-05 20:51 | 41.01432 | 12.95773 | 29488 ft | 428 kts | 166° |
| 2026-05-05 20:51 | 40.98577 | 12.97168 | 29171 ft | 425 kts | 166° |
| 2026-05-05 20:52 | 40.95768 | 12.98535 | 28867 ft | 422 kts | 166° |
| 2026-05-05 20:52 | 40.92930 | 12.99918 | 28549 ft | 420 kts | 166° |
| 2026-05-05 20:52 | 40.90153 | 13.01271 | 28231 ft | 418 kts | 166° |
| 2026-05-05 20:52 | 40.87356 | 13.02632 | 27911 ft | 416 kts | 166° |
| 2026-05-05 20:53 | 40.84590 | 13.03976 | 27589 ft | 414 kts | 166° |
| 2026-05-05 20:53 | 40.81842 | 13.05312 | 27277 ft | 412 kts | 166° |
| 2026-05-05 20:53 | 40.79079 | 13.06654 | 26981 ft | 410 kts | 166° |
| 2026-05-05 20:53 | 40.76357 | 13.07976 | 26679 ft | 408 kts | 166° |
| 2026-05-05 20:54 | 40.73632 | 13.09299 | 26370 ft | 406 kts | 165° |
| 2026-05-05 20:54 | 40.70931 | 13.10627 | 26088 ft | 404 kts | 165° |
| 2026-05-05 20:54 | 40.68235 | 13.11947 | 25802 ft | 402 kts | 165° |
| 2026-05-05 20:54 | 40.65546 | 13.13262 | 25513 ft | 400 kts | 165° |
| 2026-05-05 20:55 | 40.62858 | 13.14573 | 25210 ft | 399 kts | 165° |
| 2026-05-05 20:55 | 40.60215 | 13.15855 | 24937 ft | 397 kts | 165° |
| 2026-05-05 20:55 | 40.57567 | 13.17135 | 24665 ft | 395 kts | 165° |
| 2026-05-05 20:55 | 40.54955 | 13.18393 | 24391 ft | 393 kts | 165° |
| 2026-05-05 20:56 | 40.52306 | 13.19663 | 24105 ft | 391 kts | 165° |
| 2026-05-05 20:56 | 40.49729 | 13.20888 | 23830 ft | 390 kts | 165° |
| 2026-05-05 20:56 | 40.47110 | 13.22133 | 23570 ft | 388 kts | 165° |
| 2026-05-05 20:56 | 40.44508 | 13.23375 | 23306 ft | 387 kts | 165° |
| 2026-05-05 20:57 | 40.41963 | 13.24594 | 23058 ft | 385 kts | 165° |
| 2026-05-05 20:57 | 40.39404 | 13.25822 | 22809 ft | 383 kts | 165° |
| 2026-05-05 20:57 | 40.36850 | 13.27047 | 22559 ft | 381 kts | 165° |
| 2026-05-05 20:57 | 40.34346 | 13.28248 | 22309 ft | 380 kts | 165° |
| 2026-05-05 20:58 | 40.31813 | 13.29463 | 22069 ft | 378 kts | 165° |
| 2026-05-05 20:58 | 40.29310 | 13.30684 | 21819 ft | 377 kts | 163° |
| 2026-05-05 20:58 | 40.26876 | 13.32038 | 21575 ft | 377 kts | 161° |
| 2026-05-05 20:58 | 40.24408 | 13.33482 | 21339 ft | 376 kts | 160° |
| 2026-05-05 20:59 | 40.21959 | 13.34931 | 21101 ft | 374 kts | 160° |
| 2026-05-05 20:59 | 40.19515 | 13.36380 | 20875 ft | 372 kts | 160° |
| 2026-05-05 20:59 | 40.17117 | 13.37795 | 20646 ft | 371 kts | 160° |
| 2026-05-05 20:59 | 40.14682 | 13.39228 | 20418 ft | 369 kts | 160° |
| 2026-05-05 21:00 | 40.12286 | 13.40634 | 20199 ft | 368 kts | 160° |
| 2026-05-05 21:00 | 40.09913 | 13.42027 | 19980 ft | 366 kts | 160° |
| 2026-05-05 21:00 | 40.07526 | 13.43429 | 19757 ft | 365 kts | 160° |
| 2026-05-05 21:00 | 40.05161 | 13.44815 | 19506 ft | 362 kts | 160° |
| 2026-05-05 21:01 | 40.02801 | 13.46198 | 19232 ft | 360 kts | 160° |
| 2026-05-05 21:01 | 40.00451 | 13.47570 | 18998 ft | 357 kts | 160° |
| 2026-05-05 21:01 | 39.98162 | 13.48910 | 19064 ft | 355 kts | 160° |
| 2026-05-05 21:01 | 39.95819 | 13.50279 | 19086 ft | 360 kts | 160° |
| 2026-05-05 21:02 | 39.93431 | 13.51670 | 19092 ft | 369 kts | 160° |
| 2026-05-05 21:02 | 39.91006 | 13.53078 | 19091 ft | 377 kts | 160° |
| 2026-05-05 21:02 | 39.88526 | 13.54517 | 19089 ft | 385 kts | 160° |
| 2026-05-05 21:02 | 39.85980 | 13.55993 | 19088 ft | 393 kts | 160° |
| 2026-05-05 21:03 | 39.83398 | 13.57489 | 19087 ft | 400 kts | 159° |
| 2026-05-05 21:03 | 39.80752 | 13.59024 | 19088 ft | 407 kts | 159° |
| 2026-05-05 21:03 | 39.78065 | 13.60581 | 19117 ft | 413 kts | 159° |
| 2026-05-05 21:03 | 39.75375 | 13.62140 | 19120 ft | 420 kts | 159° |
| 2026-05-05 21:04 | 39.72596 | 13.63749 | 19117 ft | 426 kts | 159° |
| 2026-05-05 21:04 | 39.69813 | 13.65361 | 19113 ft | 431 kts | 160° |
| 2026-05-05 21:04 | 39.67008 | 13.67074 | 19080 ft | 439 kts | 153° |
| 2026-05-05 21:04 | 39.64356 | 13.69382 | 19074 ft | 445 kts | 148° |
| 2026-05-05 21:05 | 39.61784 | 13.71833 | 19072 ft | 451 kts | 146° |
| 2026-05-05 21:05 | 39.59264 | 13.74395 | 19069 ft | 454 kts | 144° |
| 2026-05-05 21:05 | 39.56752 | 13.77084 | 19065 ft | 455 kts | 143° |
| 2026-05-05 21:05 | 39.54289 | 13.79823 | 19060 ft | 456 kts | 142° |
| 2026-05-05 21:06 | 39.51845 | 13.82608 | 19056 ft | 457 kts | 142° |
| 2026-05-05 21:06 | 39.49377 | 13.85451 | 19054 ft | 458 kts | 141° |
| 2026-05-05 21:06 | 39.46920 | 13.88268 | 19055 ft | 458 kts | 142° |
| 2026-05-05 21:06 | 39.44445 | 13.91043 | 19056 ft | 458 kts | 143° |
| 2026-05-05 21:07 | 39.41940 | 13.93749 | 19057 ft | 458 kts | 144° |
| 2026-05-05 21:07 | 39.39349 | 13.96402 | 19060 ft | 458 kts | 146° |
| 2026-05-05 21:07 | 39.36714 | 13.98920 | 19064 ft | 457 kts | 148° |
| 2026-05-05 21:07 | 39.34042 | 14.01266 | 19067 ft | 456 kts | 150° |
| 2026-05-05 21:08 | 39.31256 | 14.03483 | 19069 ft | 456 kts | 153° |
| 2026-05-05 21:08 | 39.28456 | 14.05475 | 19072 ft | 455 kts | 156° |
| 2026-05-05 21:08 | 39.25556 | 14.07299 | 19074 ft | 454 kts | 159° |
| 2026-05-05 21:08 | 39.22609 | 14.08914 | 19075 ft | 453 kts | 162° |
| 2026-05-05 21:09 | 39.19613 | 14.10327 | 19077 ft | 452 kts | 165° |
| 2026-05-05 21:09 | 39.16523 | 14.11568 | 19078 ft | 451 kts | 167° |
| 2026-05-05 21:09 | 39.13418 | 14.12627 | 19079 ft | 450 kts | 169° |
| 2026-05-05 21:09 | 39.10268 | 14.13541 | 19080 ft | 450 kts | 172° |
| 2026-05-05 21:10 | 39.07158 | 14.14322 | 19081 ft | 449 kts | 173° |
| 2026-05-05 21:10 | 39.04002 | 14.15029 | 19082 ft | 449 kts | 174° |
| 2026-05-05 21:10 | 39.00854 | 14.15687 | 19083 ft | 449 kts | 174° |
| 2026-05-05 21:10 | 38.97715 | 14.16344 | 19083 ft | 450 kts | 174° |
| 2026-05-05 21:11 | 38.94585 | 14.17045 | 19083 ft | 451 kts | 173° |
| 2026-05-05 21:11 | 38.91439 | 14.17840 | 19083 ft | 452 kts | 171° |
| 2026-05-05 21:11 | 38.88273 | 14.18772 | 19083 ft | 453 kts | 169° |
| 2026-05-05 21:11 | 38.85191 | 14.19839 | 19083 ft | 455 kts | 167° |
| 2026-05-05 21:12 | 38.82106 | 14.21087 | 19081 ft | 454 kts | 166° |
| 2026-05-05 21:12 | 38.78948 | 14.21558 | 19079 ft | 443 kts | 186° |
| 2026-05-05 21:12 | 38.75791 | 14.21118 | 19085 ft | 441 kts | 189° |
| 2026-05-05 21:12 | 38.72677 | 14.20747 | 19085 ft | 443 kts | 187° |
| 2026-05-05 21:13 | 38.69516 | 14.20629 | 19084 ft | 446 kts | 183° |
| 2026-05-05 21:13 | 38.66352 | 14.20800 | 19083 ft | 448 kts | 179° |
| 2026-05-05 21:13 | 38.63185 | 14.21245 | 19083 ft | 450 kts | 175° |
| 2026-05-05 21:13 | 38.60004 | 14.21950 | 19083 ft | 452 kts | 172° |
| 2026-05-05 21:14 | 38.56895 | 14.22869 | 19083 ft | 451 kts | 168° |
| 2026-05-05 21:14 | 38.53829 | 14.23985 | 19074 ft | 440 kts | 166° |
| 2026-05-05 21:14 | 38.50905 | 14.25261 | 19079 ft | 433 kts | 163° |
| 2026-05-05 21:14 | 38.47982 | 14.26522 | 19081 ft | 430 kts | 165° |
| 2026-05-05 21:15 | 38.45050 | 14.27633 | 19081 ft | 424 kts | 167° |
| 2026-05-05 21:15 | 38.42148 | 14.28617 | 19081 ft | 418 kts | 169° |
| 2026-05-05 21:15 | 38.39272 | 14.29537 | 19080 ft | 415 kts | 169° |
| 2026-05-05 21:15 | 38.36443 | 14.30455 | 19081 ft | 415 kts | 168° |
| 2026-05-05 21:16 | 38.33601 | 14.31451 | 19079 ft | 415 kts | 167° |
| 2026-05-05 21:16 | 38.30827 | 14.32563 | 19063 ft | 397 kts | 164° |
| 2026-05-05 21:16 | 38.28289 | 14.33768 | 19069 ft | 385 kts | 161° |
| 2026-05-05 21:16 | 38.25787 | 14.35169 | 19072 ft | 385 kts | 157° |
| 2026-05-05 21:17 | 38.23341 | 14.36787 | 19072 ft | 385 kts | 153° |
| 2026-05-05 21:17 | 38.21005 | 14.38600 | 19072 ft | 385 kts | 149° |
| 2026-05-05 21:17 | 38.18780 | 14.40599 | 19072 ft | 384 kts | 145° |
| 2026-05-05 21:17 | 38.16695 | 14.42737 | 19227 ft | 372 kts | 142° |
| 2026-05-05 21:18 | 38.14781 | 14.44941 | 19506 ft | 352 kts | 139° |
| 2026-05-05 21:18 | 38.13046 | 14.47132 | 19432 ft | 343 kts | 136° |
| 2026-05-05 21:18 | 38.11395 | 14.49358 | 19217 ft | 339 kts | 135° |
| 2026-05-05 21:18 | 38.09762 | 14.51641 | 18894 ft | 338 kts | 134° |
| 2026-05-05 21:19 | 38.08149 | 14.53906 | 18491 ft | 340 kts | 135° |
| 2026-05-05 21:19 | 38.06506 | 14.56156 | 18056 ft | 341 kts | 136° |
| 2026-05-05 21:19 | 38.04819 | 14.58345 | 17645 ft | 342 kts | 138° |
| 2026-05-05 21:19 | 38.03063 | 14.60448 | 17269 ft | 341 kts | 141° |
| 2026-05-05 21:20 | 38.01220 | 14.62442 | 16918 ft | 339 kts | 143° |
| 2026-05-05 21:20 | 37.99310 | 14.64295 | 16544 ft | 338 kts | 147° |
| 2026-05-05 21:20 | 37.97316 | 14.66019 | 16177 ft | 336 kts | 150° |
| 2026-05-05 21:20 | 37.95325 | 14.67567 | 16030 ft | 327 kts | 153° |
| 2026-05-05 21:21 | 37.93300 | 14.68990 | 15771 ft | 322 kts | 155° |
| 2026-05-05 21:21 | 37.91251 | 14.70318 | 15431 ft | 321 kts | 157° |
| 2026-05-05 21:21 | 37.89183 | 14.71583 | 15015 ft | 322 kts | 158° |
| 2026-05-05 21:21 | 37.87110 | 14.72804 | 14582 ft | 323 kts | 158° |
| 2026-05-05 21:22 | 37.85041 | 14.74040 | 14117 ft | 324 kts | 157° |
| 2026-05-05 21:22 | 37.82980 | 14.75330 | 13650 ft | 324 kts | 156° |
| 2026-05-05 21:22 | 37.80907 | 14.76728 | 13219 ft | 327 kts | 154° |
| 2026-05-05 21:22 | 37.78894 | 14.78193 | 12907 ft | 328 kts | 152° |
| 2026-05-05 21:23 | 37.76934 | 14.79747 | 12360 ft | 328 kts | 149° |
| 2026-05-05 21:23 | 37.74963 | 14.81283 | 11992 ft | 325 kts | 160° |
| 2026-05-05 21:23 | 37.72705 | 14.81730 | 11623 ft | 317 kts | 188° |
| 2026-05-05 21:23 | 37.70594 | 14.80875 | 11160 ft | 310 kts | 214° |
| 2026-05-05 21:24 | 37.69053 | 14.78949 | 10637 ft | 307 kts | 238° |
| 2026-05-05 21:24 | 37.68015 | 14.76499 | 10077 ft | 310 kts | 248° |
| 2026-05-05 21:24 | 37.67319 | 14.73855 | 9400 ft | 312 kts | 254° |
| 2026-05-05 21:24 | 37.66753 | 14.71116 | 8618 ft | 316 kts | 256° |
| 2026-05-05 21:25 | 37.66093 | 14.68384 | 7810 ft | 319 kts | 247° |
| 2026-05-05 21:25 | 37.64986 | 14.65886 | 7031 ft | 320 kts | 231° |
| 2026-05-05 21:25 | 37.63409 | 14.63811 | 6281 ft | 320 kts | 218° |
| 2026-05-05 21:25 | 37.61438 | 14.62378 | 5551 ft | 319 kts | 204° |
| 2026-05-05 21:26 | 37.59338 | 14.61504 | 5216 ft | 307 kts | 190° |
| 2026-05-05 21:26 | 37.57281 | 14.61314 | 5152 ft | 268 kts | 178° |
| 2026-05-05 21:26 | 37.55526 | 14.61581 | 5079 ft | 231 kts | 171° |
| 2026-05-05 21:26 | 37.54024 | 14.62041 | 5049 ft | 200 kts | 162° |
| 2026-05-05 21:27 | 37.52819 | 14.62711 | 5032 ft | 174 kts | 152° |
| 2026-05-05 21:27 | 37.51839 | 14.63464 | 5005 ft | 148 kts | 140° |
| 2026-05-05 21:27 | 37.51141 | 14.64368 | 4958 ft | 135 kts | 131° |
| 2026-05-05 21:27 | 37.50530 | 14.65314 | 4804 ft | 135 kts | 129° |
| 2026-05-05 21:28 | 37.49934 | 14.66298 | 4701 ft | 140 kts | 129° |
| 2026-05-05 21:28 | 37.49322 | 14.67315 | 4747 ft | 144 kts | 128° |
| 2026-05-05 21:28 | 37.48692 | 14.68364 | 4877 ft | 149 kts | 128° |
| 2026-05-05 21:28 | 37.48041 | 14.69445 | 5020 ft | 153 kts | 128° |
| 2026-05-05 21:29 | 37.47359 | 14.70576 | 5081 ft | 162 kts | 128° |
| 2026-05-05 21:29 | 37.46599 | 14.71722 | 5112 ft | 170 kts | 130° |
| 2026-05-05 21:29 | 37.45917 | 14.73002 | 5122 ft | 172 kts | 120° |
| 2026-05-05 21:29 | 37.45404 | 14.74416 | 5125 ft | 171 kts | 111° |
| 2026-05-05 21:30 | 37.45055 | 14.75850 | 5110 ft | 162 kts | 104° |
| 2026-05-05 21:30 | 37.44854 | 14.77226 | 5076 ft | 151 kts | 101° |
| 2026-05-05 21:30 | 37.44690 | 14.78548 | 5057 ft | 148 kts | 99° |
| 2026-05-05 21:30 | 37.44534 | 14.79865 | 5048 ft | 147 kts | 101° |
| 2026-05-05 21:31 | 37.44405 | 14.81207 | 5055 ft | 152 kts | 95° |
| 2026-05-05 21:31 | 37.44318 | 14.82615 | 5080 ft | 160 kts | 95° |
| 2026-05-05 21:31 | 37.44298 | 14.84072 | 5099 ft | 165 kts | 91° |
| 2026-05-05 21:31 | 37.44352 | 14.85581 | 5108 ft | 167 kts | 86° |
| 2026-05-05 21:32 | 37.44474 | 14.87057 | 5105 ft | 164 kts | 84° |
| 2026-05-05 21:32 | 37.44642 | 14.88482 | 5091 ft | 158 kts | 82° |
| 2026-05-05 21:32 | 37.44836 | 14.89868 | 5075 ft | 156 kts | 81° |
| 2026-05-05 21:32 | 37.45044 | 14.91276 | 5094 ft | 164 kts | 81° |
| 2026-05-05 21:33 | 37.45256 | 14.92794 | 4988 ft | 181 kts | 82° |
| 2026-05-05 21:33 | 37.45466 | 14.94529 | 4329 ft | 211 kts | 83° |
| 2026-05-05 21:33 | 37.45667 | 14.96551 | 3313 ft | 243 kts | 84° |
| 2026-05-05 21:33 | 37.45865 | 14.98667 | 2631 ft | 229 kts | 82° |
| 2026-05-05 21:34 | 37.46069 | 15.00605 | 1726 ft | 214 kts | 82° |
| 2026-05-05 21:34 | 37.46279 | 15.02413 | 950 ft | 193 kts | 81° |
| 2026-05-05 21:34 | 37.46430 | 15.04039 | 392 ft | 172 kts | 82° |
| 2026-05-05 21:34 | 37.46578 | 15.05466 | 89 ft | 149 kts | 82° |
| 2026-05-05 21:35 | 37.46683 | 15.06648 | 32 ft | 113 kts | 84° |
| 2026-05-05 21:35 | 37.46760 | 15.07548 | 32 ft | 88 kts | 82° |
| 2026-05-05 21:35 | 37.46833 | 15.08248 | 28 ft | 68 kts | 84° |
| 2026-05-05 21:35 | 37.46886 | 15.08693 | 5 ft | 25 kts | 78° |